sensor_id;sensor_type;location;lat;lon;timestamp;temperature;humidity
19031;DHT22;9648;51.130;13.978;2022-10-28T00:00:51;12.10;99.90
19031;DHT22;9648;51.130;13.978;2022-10-28T00:03:19;12.10;99.90
19031;DHT22;9648;51.130;13.978;2022-10-28T00:05:46;12.10;99.90
19031;DHT22;9648;51.130;13.978;2022-10-28T00:08:13;12.10;99.90
19031;DHT22;9648;51.130;13.978;2022-10-28T00:10:40;12.10;99.90
19031;DHT22;9648;51.130;13.978;2022-10-28T00:13:06;12.10;99.90
19031;DHT22;9648;51.130;13.978;2022-10-28T00:15:33;12.10;99.90
19031;DHT22;9648;51.130;13.978;2022-10-28T00:18:01;12.10;99.90
19031;DHT22;9648;51.130;13.978;2022-10-28T00:20:30;12.10;99.90
19031;DHT22;9648;51.130;13.978;2022-10-28T00:22:57;12.10;99.90
19031;DHT22;9648;51.130;13.978;2022-10-28T00:25:24;12.10;99.90
19031;DHT22;9648;51.130;13.978;2022-10-28T00:27:51;12.10;99.90
19031;DHT22;9648;51.130;13.978;2022-10-28T00:30:18;12.10;99.90
19031;DHT22;9648;51.130;13.978;2022-10-28T00:32:44;12.10;99.90
19031;DHT22;9648;51.130;13.978;2022-10-28T00:35:11;12.10;99.90
19031;DHT22;9648;51.130;13.978;2022-10-28T00:37:39;12.10;99.90
19031;DHT22;9648;51.130;13.978;2022-10-28T00:40:07;12.10;99.90
19031;DHT22;9648;51.130;13.978;2022-10-28T00:42:34;12.10;99.90
19031;DHT22;9648;51.130;13.978;2022-10-28T00:45:02;12.10;99.90
19031;DHT22;9648;51.130;13.978;2022-10-28T00:47:44;12.10;99.90
19031;DHT22;9648;51.130;13.978;2022-10-28T00:50:24;12.10;99.90
19031;DHT22;9648;51.130;13.978;2022-10-28T00:52:58;12.00;99.90
19031;DHT22;9648;51.130;13.978;2022-10-28T00:55:26;12.00;99.90
19031;DHT22;9648;51.130;13.978;2022-10-28T00:57:54;12.00;99.90
19031;DHT22;9648;51.130;13.978;2022-10-28T01:00:22;12.00;99.90
19031;DHT22;9648;51.130;13.978;2022-10-28T01:02:49;12.00;99.90
19031;DHT22;9648;51.130;13.978;2022-10-28T01:05:20;12.00;99.90
19031;DHT22;9648;51.130;13.978;2022-10-28T01:07:49;12.00;99.90
19031;DHT22;9648;51.130;13.978;2022-10-28T01:10:20;12.00;99.90
19031;DHT22;9648;51.130;13.978;2022-10-28T01:12:57;12.00;99.90
19031;DHT22;9648;51.130;13.978;2022-10-28T01:15:32;12.00;99.90
19031;DHT22;9648;51.130;13.978;2022-10-28T01:18:10;12.00;99.90
19031;DHT22;9648;51.130;13.978;2022-10-28T01:23:47;12.00;99.90
19031;DHT22;9648;51.130;13.978;2022-10-28T01:26:33;12.00;99.90
19031;DHT22;9648;51.130;13.978;2022-10-28T01:29:35;12.00;99.90
19031;DHT22;9648;51.130;13.978;2022-10-28T01:32:09;12.00;99.90
19031;DHT22;9648;51.130;13.978;2022-10-28T01:34:45;12.00;99.90
19031;DHT22;9648;51.130;13.978;2022-10-28T01:37:17;12.00;99.90
19031;DHT22;9648;51.130;13.978;2022-10-28T01:39:48;12.00;99.90
19031;DHT22;9648;51.130;13.978;2022-10-28T01:42:24;12.00;99.90
19031;DHT22;9648;51.130;13.978;2022-10-28T01:44:59;12.10;99.90
19031;DHT22;9648;51.130;13.978;2022-10-28T01:47:30;12.10;99.90
19031;DHT22;9648;51.130;13.978;2022-10-28T01:50:02;12.10;99.90
19031;DHT22;9648;51.130;13.978;2022-10-28T01:52:31;12.10;99.90
19031;DHT22;9648;51.130;13.978;2022-10-28T01:55:02;12.20;99.90
19031;DHT22;9648;51.130;13.978;2022-10-28T01:57:32;12.30;99.90
19031;DHT22;9648;51.130;13.978;2022-10-28T02:00:04;12.30;99.90
19031;DHT22;9648;51.130;13.978;2022-10-28T02:02:35;12.40;99.90
19031;DHT22;9648;51.130;13.978;2022-10-28T02:05:04;12.40;99.90
19031;DHT22;9648;51.130;13.978;2022-10-28T02:07:31;12.40;99.90
19031;DHT22;9648;51.130;13.978;2022-10-28T02:10:03;12.50;99.90
19031;DHT22;9648;51.130;13.978;2022-10-28T02:12:37;12.50;99.90
19031;DHT22;9648;51.130;13.978;2022-10-28T02:15:18;12.50;99.90
19031;DHT22;9648;51.130;13.978;2022-10-28T02:17:59;12.60;99.90
19031;DHT22;9648;51.130;13.978;2022-10-28T02:20:34;12.60;99.90
19031;DHT22;9648;51.130;13.978;2022-10-28T02:23:13;12.70;99.90
19031;DHT22;9648;51.130;13.978;2022-10-28T02:25:47;12.70;99.90
19031;DHT22;9648;51.130;13.978;2022-10-28T02:28:19;12.70;99.90
19031;DHT22;9648;51.130;13.978;2022-10-28T02:30:53;12.70;99.90
19031;DHT22;9648;51.130;13.978;2022-10-28T02:33:27;12.70;99.90
19031;DHT22;9648;51.130;13.978;2022-10-28T02:35:59;12.70;99.90
19031;DHT22;9648;51.130;13.978;2022-10-28T02:38:32;12.70;99.90
19031;DHT22;9648;51.130;13.978;2022-10-28T02:41:03;12.70;99.90
19031;DHT22;9648;51.130;13.978;2022-10-28T02:43:34;12.70;99.90
19031;DHT22;9648;51.130;13.978;2022-10-28T02:46:03;12.70;99.90
19031;DHT22;9648;51.130;13.978;2022-10-28T02:48:34;12.80;99.90
19031;DHT22;9648;51.130;13.978;2022-10-28T02:51:08;12.80;99.90
19031;DHT22;9648;51.130;13.978;2022-10-28T02:53:44;12.70;99.90
19031;DHT22;9648;51.130;13.978;2022-10-28T02:56:14;12.80;99.90
19031;DHT22;9648;51.130;13.978;2022-10-28T02:58:44;12.80;99.90
19031;DHT22;9648;51.130;13.978;2022-10-28T03:01:11;12.80;99.90
19031;DHT22;9648;51.130;13.978;2022-10-28T03:03:39;12.80;99.90
19031;DHT22;9648;51.130;13.978;2022-10-28T03:06:07;12.80;99.90
19031;DHT22;9648;51.130;13.978;2022-10-28T03:08:34;12.80;99.90
19031;DHT22;9648;51.130;13.978;2022-10-28T03:11:01;12.80;99.90
19031;DHT22;9648;51.130;13.978;2022-10-28T03:13:28;12.80;99.90
19031;DHT22;9648;51.130;13.978;2022-10-28T03:15:54;12.90;99.90
19031;DHT22;9648;51.130;13.978;2022-10-28T03:18:21;12.90;99.90
19031;DHT22;9648;51.130;13.978;2022-10-28T03:20:49;12.90;99.90
19031;DHT22;9648;51.130;13.978;2022-10-28T03:23:16;12.90;99.90
19031;DHT22;9648;51.130;13.978;2022-10-28T03:25:43;12.80;99.90
19031;DHT22;9648;51.130;13.978;2022-10-28T03:28:10;12.80;99.90
19031;DHT22;9648;51.130;13.978;2022-10-28T03:30:36;12.80;99.90
19031;DHT22;9648;51.130;13.978;2022-10-28T03:33:03;12.70;99.90
19031;DHT22;9648;51.130;13.978;2022-10-28T03:35:30;12.70;99.90
19031;DHT22;9648;51.130;13.978;2022-10-28T03:37:58;12.70;99.90
19031;DHT22;9648;51.130;13.978;2022-10-28T03:40:25;12.60;99.90
19031;DHT22;9648;51.130;13.978;2022-10-28T03:42:52;12.70;99.90
19031;DHT22;9648;51.130;13.978;2022-10-28T03:45:19;12.60;99.90
19031;DHT22;9648;51.130;13.978;2022-10-28T03:47:46;12.60;99.90
19031;DHT22;9648;51.130;13.978;2022-10-28T03:50:12;12.60;99.90
19031;DHT22;9648;51.130;13.978;2022-10-28T03:52:41;12.60;99.90
19031;DHT22;9648;51.130;13.978;2022-10-28T03:55:10;12.60;99.90
19031;DHT22;9648;51.130;13.978;2022-10-28T03:57:37;12.50;99.90
19031;DHT22;9648;51.130;13.978;2022-10-28T04:00:04;12.50;99.90
19031;DHT22;9648;51.130;13.978;2022-10-28T04:02:31;12.50;99.90
19031;DHT22;9648;51.130;13.978;2022-10-28T04:04:58;12.40;99.90
19031;DHT22;9648;51.130;13.978;2022-10-28T04:07:25;12.40;99.90
19031;DHT22;9648;51.130;13.978;2022-10-28T04:09:52;12.40;99.90
19031;DHT22;9648;51.130;13.978;2022-10-28T04:12:20;12.30;99.90
19031;DHT22;9648;51.130;13.978;2022-10-28T04:14:47;12.30;99.90
19031;DHT22;9648;51.130;13.978;2022-10-28T04:17:14;12.30;99.90
19031;DHT22;9648;51.130;13.978;2022-10-28T04:19:41;12.20;99.90
19031;DHT22;9648;51.130;13.978;2022-10-28T04:22:08;12.20;99.90
19031;DHT22;9648;51.130;13.978;2022-10-28T04:24:34;12.20;99.90
19031;DHT22;9648;51.130;13.978;2022-10-28T04:27:01;12.20;99.90
19031;DHT22;9648;51.130;13.978;2022-10-28T04:29:31;12.20;99.90
19031;DHT22;9648;51.130;13.978;2022-10-28T04:31:57;12.20;99.90
19031;DHT22;9648;51.130;13.978;2022-10-28T04:34:25;12.20;99.90
19031;DHT22;9648;51.130;13.978;2022-10-28T04:36:52;12.20;99.90
19031;DHT22;9648;51.130;13.978;2022-10-28T04:39:19;12.10;99.90
19031;DHT22;9648;51.130;13.978;2022-10-28T04:41:46;12.10;99.90
19031;DHT22;9648;51.130;13.978;2022-10-28T04:44:13;12.10;99.90
19031;DHT22;9648;51.130;13.978;2022-10-28T04:46:41;12.10;99.90
19031;DHT22;9648;51.130;13.978;2022-10-28T04:49:08;12.10;99.90
19031;DHT22;9648;51.130;13.978;2022-10-28T04:51:35;12.10;99.90
19031;DHT22;9648;51.130;13.978;2022-10-28T04:54:01;12.10;99.90
19031;DHT22;9648;51.130;13.978;2022-10-28T04:56:28;12.00;99.90
19031;DHT22;9648;51.130;13.978;2022-10-28T04:58:57;12.00;99.90
19031;DHT22;9648;51.130;13.978;2022-10-28T05:01:24;12.00;99.90
19031;DHT22;9648;51.130;13.978;2022-10-28T05:03:52;12.00;99.90
19031;DHT22;9648;51.130;13.978;2022-10-28T05:06:19;12.00;99.90
19031;DHT22;9648;51.130;13.978;2022-10-28T05:08:46;12.00;99.90
19031;DHT22;9648;51.130;13.978;2022-10-28T05:11:13;12.00;99.90
19031;DHT22;9648;51.130;13.978;2022-10-28T05:13:40;12.00;99.90
19031;DHT22;9648;51.130;13.978;2022-10-28T05:16:07;12.00;99.90
19031;DHT22;9648;51.130;13.978;2022-10-28T05:18:34;12.00;99.90
19031;DHT22;9648;51.130;13.978;2022-10-28T05:21:02;12.00;99.90
19031;DHT22;9648;51.130;13.978;2022-10-28T05:23:29;12.00;99.90
19031;DHT22;9648;51.130;13.978;2022-10-28T05:25:56;12.00;99.90
19031;DHT22;9648;51.130;13.978;2022-10-28T05:28:23;12.00;99.90
19031;DHT22;9648;51.130;13.978;2022-10-28T05:30:50;12.00;99.90
19031;DHT22;9648;51.130;13.978;2022-10-28T05:33:16;12.00;99.90
19031;DHT22;9648;51.130;13.978;2022-10-28T05:35:43;12.10;99.90
19031;DHT22;9648;51.130;13.978;2022-10-28T05:38:12;12.10;99.90
19031;DHT22;9648;51.130;13.978;2022-10-28T05:40:39;12.10;99.90
19031;DHT22;9648;51.130;13.978;2022-10-28T05:43:06;12.10;99.90
19031;DHT22;9648;51.130;13.978;2022-10-28T05:45:34;12.10;99.90
19031;DHT22;9648;51.130;13.978;2022-10-28T05:48:01;12.10;99.90
19031;DHT22;9648;51.130;13.978;2022-10-28T05:50:28;12.10;99.90
19031;DHT22;9648;51.130;13.978;2022-10-28T05:52:56;12.10;99.90
19031;DHT22;9648;51.130;13.978;2022-10-28T05:55:25;12.00;99.90
19031;DHT22;9648;51.130;13.978;2022-10-28T05:57:54;12.00;99.90
19031;DHT22;9648;51.130;13.978;2022-10-28T06:00:23;12.00;99.90
19031;DHT22;9648;51.130;13.978;2022-10-28T06:02:50;12.00;99.90
19031;DHT22;9648;51.130;13.978;2022-10-28T06:05:17;12.10;99.90
19031;DHT22;9648;51.130;13.978;2022-10-28T06:07:44;12.10;99.90
19031;DHT22;9648;51.130;13.978;2022-10-28T06:10:11;12.10;99.90
19031;DHT22;9648;51.130;13.978;2022-10-28T06:12:39;12.00;99.90
19031;DHT22;9648;51.130;13.978;2022-10-28T06:15:07;12.10;99.90
19031;DHT22;9648;51.130;13.978;2022-10-28T06:17:34;12.00;99.90
19031;DHT22;9648;51.130;13.978;2022-10-28T06:20:01;12.10;99.90
19031;DHT22;9648;51.130;13.978;2022-10-28T06:22:28;12.10;99.90
19031;DHT22;9648;51.130;13.978;2022-10-28T06:24:55;12.10;99.90
19031;DHT22;9648;51.130;13.978;2022-10-28T06:27:22;12.10;99.90
19031;DHT22;9648;51.130;13.978;2022-10-28T06:29:50;12.10;99.90
19031;DHT22;9648;51.130;13.978;2022-10-28T06:32:17;12.10;99.90
19031;DHT22;9648;51.130;13.978;2022-10-28T06:34:43;12.00;99.90
19031;DHT22;9648;51.130;13.978;2022-10-28T06:37:10;12.10;99.90
19031;DHT22;9648;51.130;13.978;2022-10-28T06:39:38;12.10;99.90
19031;DHT22;9648;51.130;13.978;2022-10-28T06:42:05;12.10;99.90
19031;DHT22;9648;51.130;13.978;2022-10-28T06:44:32;12.10;99.90
19031;DHT22;9648;51.130;13.978;2022-10-28T06:47:00;12.20;99.90
19031;DHT22;9648;51.130;13.978;2022-10-28T06:49:27;12.20;99.90
19031;DHT22;9648;51.130;13.978;2022-10-28T06:51:54;12.20;99.90
19031;DHT22;9648;51.130;13.978;2022-10-28T06:54:21;12.30;99.90
19031;DHT22;9648;51.130;13.978;2022-10-28T06:56:47;12.30;99.90
19031;DHT22;9648;51.130;13.978;2022-10-28T06:59:14;12.40;99.90
19031;DHT22;9648;51.130;13.978;2022-10-28T07:01:41;12.40;99.90
19031;DHT22;9648;51.130;13.978;2022-10-28T07:04:11;12.40;99.90
19031;DHT22;9648;51.130;13.978;2022-10-28T07:06:38;12.50;99.90
19031;DHT22;9648;51.130;13.978;2022-10-28T07:09:06;12.50;99.90
19031;DHT22;9648;51.130;13.978;2022-10-28T07:11:33;12.60;99.90
19031;DHT22;9648;51.130;13.978;2022-10-28T07:13:59;12.70;99.90
19031;DHT22;9648;51.130;13.978;2022-10-28T07:16:26;12.80;99.90
19031;DHT22;9648;51.130;13.978;2022-10-28T07:18:53;12.90;99.90
19031;DHT22;9648;51.130;13.978;2022-10-28T07:21:21;13.00;99.90
19031;DHT22;9648;51.130;13.978;2022-10-28T07:23:53;13.10;99.90
19031;DHT22;9648;51.130;13.978;2022-10-28T07:26:21;13.20;99.90
19031;DHT22;9648;51.130;13.978;2022-10-28T07:28:48;13.30;99.90
19031;DHT22;9648;51.130;13.978;2022-10-28T07:31:15;13.40;99.90
19031;DHT22;9648;51.130;13.978;2022-10-28T07:33:42;13.50;99.90
19031;DHT22;9648;51.130;13.978;2022-10-28T07:36:10;13.60;99.90
19031;DHT22;9648;51.130;13.978;2022-10-28T07:38:38;13.60;99.90
19031;DHT22;9648;51.130;13.978;2022-10-28T07:41:06;13.70;99.90
19031;DHT22;9648;51.130;13.978;2022-10-28T07:43:37;13.70;99.90
19031;DHT22;9648;51.130;13.978;2022-10-28T07:46:04;13.80;99.90
19031;DHT22;9648;51.130;13.978;2022-10-28T07:48:31;13.80;99.90
19031;DHT22;9648;51.130;13.978;2022-10-28T07:50:59;13.80;99.90
19031;DHT22;9648;51.130;13.978;2022-10-28T07:53:27;13.80;99.90
19031;DHT22;9648;51.130;13.978;2022-10-28T07:55:56;13.80;99.90
19031;DHT22;9648;51.130;13.978;2022-10-28T07:58:23;13.80;99.90
19031;DHT22;9648;51.130;13.978;2022-10-28T08:00:50;13.80;99.90
19031;DHT22;9648;51.130;13.978;2022-10-28T08:03:17;13.90;99.90
19031;DHT22;9648;51.130;13.978;2022-10-28T08:05:44;13.90;99.90
19031;DHT22;9648;51.130;13.978;2022-10-28T08:08:11;13.90;99.90
19031;DHT22;9648;51.130;13.978;2022-10-28T08:10:38;13.90;99.90
19031;DHT22;9648;51.130;13.978;2022-10-28T08:13:06;14.00;99.90
19031;DHT22;9648;51.130;13.978;2022-10-28T08:15:33;14.00;99.90
19031;DHT22;9648;51.130;13.978;2022-10-28T08:18:00;14.10;99.90
19031;DHT22;9648;51.130;13.978;2022-10-28T08:20:27;14.20;99.90
19031;DHT22;9648;51.130;13.978;2022-10-28T08:22:54;14.20;99.90
19031;DHT22;9648;51.130;13.978;2022-10-28T08:25:20;14.30;99.90
19031;DHT22;9648;51.130;13.978;2022-10-28T08:27:47;14.30;99.90
19031;DHT22;9648;51.130;13.978;2022-10-28T08:30:15;14.40;99.90
19031;DHT22;9648;51.130;13.978;2022-10-28T08:32:42;14.30;99.90
19031;DHT22;9648;51.130;13.978;2022-10-28T08:35:09;14.40;99.90
19031;DHT22;9648;51.130;13.978;2022-10-28T08:37:36;14.40;99.90
19031;DHT22;9648;51.130;13.978;2022-10-28T08:40:03;14.40;99.90
19031;DHT22;9648;51.130;13.978;2022-10-28T08:42:38;14.50;99.90
19031;DHT22;9648;51.130;13.978;2022-10-28T08:45:23;14.60;99.90
19031;DHT22;9648;51.130;13.978;2022-10-28T08:48:08;14.80;99.90
19031;DHT22;9648;51.130;13.978;2022-10-28T08:50:44;14.90;99.90
19031;DHT22;9648;51.130;13.978;2022-10-28T08:53:15;15.10;99.90
19031;DHT22;9648;51.130;13.978;2022-10-28T08:55:46;15.20;99.90
19031;DHT22;9648;51.130;13.978;2022-10-28T08:58:18;15.30;99.90
19031;DHT22;9648;51.130;13.978;2022-10-28T09:00:51;15.40;99.90
19031;DHT22;9648;51.130;13.978;2022-10-28T09:03:20;15.50;99.90
19031;DHT22;9648;51.130;13.978;2022-10-28T09:05:53;15.50;99.90
19031;DHT22;9648;51.130;13.978;2022-10-28T09:08:23;15.50;99.90
19031;DHT22;9648;51.130;13.978;2022-10-28T09:11:05;15.50;99.90
19031;DHT22;9648;51.130;13.978;2022-10-28T09:13:51;15.40;99.90
19031;DHT22;9648;51.130;13.978;2022-10-28T09:16:31;15.40;99.90
19031;DHT22;9648;51.130;13.978;2022-10-28T09:19:03;15.40;99.90
19031;DHT22;9648;51.130;13.978;2022-10-28T09:21:39;15.40;99.90
19031;DHT22;9648;51.130;13.978;2022-10-28T09:24:14;15.50;99.90
19031;DHT22;9648;51.130;13.978;2022-10-28T09:26:49;15.50;99.90
19031;DHT22;9648;51.130;13.978;2022-10-28T09:29:35;15.60;99.90
19031;DHT22;9648;51.130;13.978;2022-10-28T09:32:13;15.60;99.90
19031;DHT22;9648;51.130;13.978;2022-10-28T09:34:45;15.70;99.90
19031;DHT22;9648;51.130;13.978;2022-10-28T09:37:16;15.80;99.90
19031;DHT22;9648;51.130;13.978;2022-10-28T09:39:46;16.00;99.90
19031;DHT22;9648;51.130;13.978;2022-10-28T09:42:17;16.10;99.90
19031;DHT22;9648;51.130;13.978;2022-10-28T09:44:47;16.20;99.90
19031;DHT22;9648;51.130;13.978;2022-10-28T09:47:20;16.20;99.90
19031;DHT22;9648;51.130;13.978;2022-10-28T09:49:48;16.20;99.90
19031;DHT22;9648;51.130;13.978;2022-10-28T09:52:20;16.30;99.90
19031;DHT22;9648;51.130;13.978;2022-10-28T09:54:50;16.40;99.90
19031;DHT22;9648;51.130;13.978;2022-10-28T09:57:17;16.40;99.90
19031;DHT22;9648;51.130;13.978;2022-10-28T09:59:44;16.50;99.90
19031;DHT22;9648;51.130;13.978;2022-10-28T10:02:25;16.60;99.90
19031;DHT22;9648;51.130;13.978;2022-10-28T10:04:52;16.70;99.90
19031;DHT22;9648;51.130;13.978;2022-10-28T10:07:27;16.80;99.90
19031;DHT22;9648;51.130;13.978;2022-10-28T10:09:55;16.90;99.90
19031;DHT22;9648;51.130;13.978;2022-10-28T10:12:23;17.00;99.90
19031;DHT22;9648;51.130;13.978;2022-10-28T10:14:53;17.10;99.90
19031;DHT22;9648;51.130;13.978;2022-10-28T10:17:26;17.20;99.90
19031;DHT22;9648;51.130;13.978;2022-10-28T10:20:00;17.30;99.90
19031;DHT22;9648;51.130;13.978;2022-10-28T10:22:31;17.40;99.90
19031;DHT22;9648;51.130;13.978;2022-10-28T10:24:58;17.40;99.90
19031;DHT22;9648;51.130;13.978;2022-10-28T10:27:26;17.50;99.90
19031;DHT22;9648;51.130;13.978;2022-10-28T10:29:54;17.50;99.90
19031;DHT22;9648;51.130;13.978;2022-10-28T10:32:25;17.50;99.90
19031;DHT22;9648;51.130;13.978;2022-10-28T10:35:00;17.50;99.90
19031;DHT22;9648;51.130;13.978;2022-10-28T10:37:29;17.50;99.90
19031;DHT22;9648;51.130;13.978;2022-10-28T10:40:00;17.60;99.90
19031;DHT22;9648;51.130;13.978;2022-10-28T10:42:28;17.50;99.90
19031;DHT22;9648;51.130;13.978;2022-10-28T10:45:00;17.50;99.90
19031;DHT22;9648;51.130;13.978;2022-10-28T10:47:28;17.50;99.90
19031;DHT22;9648;51.130;13.978;2022-10-28T10:50:21;17.40;99.90
19031;DHT22;9648;51.130;13.978;2022-10-28T10:52:50;17.30;99.90
19031;DHT22;9648;51.130;13.978;2022-10-28T10:55:23;17.30;99.90
19031;DHT22;9648;51.130;13.978;2022-10-28T10:57:52;17.20;99.90
19031;DHT22;9648;51.130;13.978;2022-10-28T11:00:28;17.10;99.90
19031;DHT22;9648;51.130;13.978;2022-10-28T11:02:58;17.00;99.90
19031;DHT22;9648;51.130;13.978;2022-10-28T11:05:25;17.00;99.90
19031;DHT22;9648;51.130;13.978;2022-10-28T11:07:53;16.90;99.90
19031;DHT22;9648;51.130;13.978;2022-10-28T11:10:22;16.80;99.90
19031;DHT22;9648;51.130;13.978;2022-10-28T11:12:51;16.70;99.90
19031;DHT22;9648;51.130;13.978;2022-10-28T11:15:23;16.70;99.90
19031;DHT22;9648;51.130;13.978;2022-10-28T11:17:55;16.80;99.90
19031;DHT22;9648;51.130;13.978;2022-10-28T11:20:25;16.80;99.90
19031;DHT22;9648;51.130;13.978;2022-10-28T11:25:48;16.90;99.90
19031;DHT22;9648;51.130;13.978;2022-10-28T11:28:43;17.00;99.90
19031;DHT22;9648;51.130;13.978;2022-10-28T11:31:32;17.00;99.90
19031;DHT22;9648;51.130;13.978;2022-10-28T11:34:12;17.00;99.90
19031;DHT22;9648;51.130;13.978;2022-10-28T11:36:51;17.10;99.90
19031;DHT22;9648;51.130;13.978;2022-10-28T11:39:26;17.20;99.90
19031;DHT22;9648;51.130;13.978;2022-10-28T11:42:15;17.20;99.90
19031;DHT22;9648;51.130;13.978;2022-10-28T11:44:50;17.30;99.90
19031;DHT22;9648;51.130;13.978;2022-10-28T11:47:39;17.30;99.90
19031;DHT22;9648;51.130;13.978;2022-10-28T11:53:28;17.00;99.90
19031;DHT22;9648;51.130;13.978;2022-10-28T11:56:05;16.90;99.90
19031;DHT22;9648;51.130;13.978;2022-10-28T11:58:40;16.80;99.90
19031;DHT22;9648;51.130;13.978;2022-10-28T12:01:17;16.70;99.90
19031;DHT22;9648;51.130;13.978;2022-10-28T12:04:05;16.70;99.90
19031;DHT22;9648;51.130;13.978;2022-10-28T12:06:48;16.60;99.90
19031;DHT22;9648;51.130;13.978;2022-10-28T12:09:25;16.60;99.90
19031;DHT22;9648;51.130;13.978;2022-10-28T12:12:06;16.60;99.90
19031;DHT22;9648;51.130;13.978;2022-10-28T12:14:41;16.60;99.90
19031;DHT22;9648;51.130;13.978;2022-10-28T12:17:16;16.50;99.90
19031;DHT22;9648;51.130;13.978;2022-10-28T12:19:49;16.50;99.90
19031;DHT22;9648;51.130;13.978;2022-10-28T12:22:22;16.50;99.90
19031;DHT22;9648;51.130;13.978;2022-10-28T12:24:53;16.50;99.90
19031;DHT22;9648;51.130;13.978;2022-10-28T12:27:24;16.50;99.90
19031;DHT22;9648;51.130;13.978;2022-10-28T12:29:57;16.50;99.90
19031;DHT22;9648;51.130;13.978;2022-10-28T12:32:28;16.50;99.90
19031;DHT22;9648;51.130;13.978;2022-10-28T12:35:00;16.60;99.90
19031;DHT22;9648;51.130;13.978;2022-10-28T12:37:32;16.70;99.90
19031;DHT22;9648;51.130;13.978;2022-10-28T12:40:09;16.80;99.90
19031;DHT22;9648;51.130;13.978;2022-10-28T12:42:41;16.80;99.90
19031;DHT22;9648;51.130;13.978;2022-10-28T12:45:13;16.90;99.90
19031;DHT22;9648;51.130;13.978;2022-10-28T12:47:44;16.90;99.90
19031;DHT22;9648;51.130;13.978;2022-10-28T12:50:18;16.90;99.90
19031;DHT22;9648;51.130;13.978;2022-10-28T12:52:53;16.90;99.90
19031;DHT22;9648;51.130;13.978;2022-10-28T12:55:30;16.90;99.90
19031;DHT22;9648;51.130;13.978;2022-10-28T12:58:01;16.90;99.90
19031;DHT22;9648;51.130;13.978;2022-10-28T13:00:32;16.90;99.90
19031;DHT22;9648;51.130;13.978;2022-10-28T13:03:02;16.90;99.90
19031;DHT22;9648;51.130;13.978;2022-10-28T13:05:35;16.90;99.90
19031;DHT22;9648;51.130;13.978;2022-10-28T13:11:49;17.00;99.90
19031;DHT22;9648;51.130;13.978;2022-10-28T13:14:36;17.00;99.90
19031;DHT22;9648;51.130;13.978;2022-10-28T13:17:16;17.00;99.90
19031;DHT22;9648;51.130;13.978;2022-10-28T13:20:00;16.90;99.90
19031;DHT22;9648;51.130;13.978;2022-10-28T13:22:44;16.80;99.90
19031;DHT22;9648;51.130;13.978;2022-10-28T13:25:31;16.80;99.90
19031;DHT22;9648;51.130;13.978;2022-10-28T13:28:03;16.70;99.90
19031;DHT22;9648;51.130;13.978;2022-10-28T13:30:30;16.80;99.90
19031;DHT22;9648;51.130;13.978;2022-10-28T13:33:02;16.80;99.90
19031;DHT22;9648;51.130;13.978;2022-10-28T13:35:31;16.90;99.90
19031;DHT22;9648;51.130;13.978;2022-10-28T13:37:59;16.90;99.90
19031;DHT22;9648;51.130;13.978;2022-10-28T13:43:57;16.80;99.90
19031;DHT22;9648;51.130;13.978;2022-10-28T13:47:20;16.70;99.90
19031;DHT22;9648;51.130;13.978;2022-10-28T13:56:19;16.60;99.90
19031;DHT22;9648;51.130;13.978;2022-10-28T13:58:52;16.70;99.90
19031;DHT22;9648;51.130;13.978;2022-10-28T14:01:45;16.70;99.90
19031;DHT22;9648;51.130;13.978;2022-10-28T14:04:21;16.80;99.90
19031;DHT22;9648;51.130;13.978;2022-10-28T14:06:48;16.80;99.90
19031;DHT22;9648;51.130;13.978;2022-10-28T14:09:20;16.90;99.90
19031;DHT22;9648;51.130;13.978;2022-10-28T14:12:03;16.80;99.90
19031;DHT22;9648;51.130;13.978;2022-10-28T14:14:30;16.80;99.90
19031;DHT22;9648;51.130;13.978;2022-10-28T14:16:59;16.80;99.90
19031;DHT22;9648;51.130;13.978;2022-10-28T14:19:26;16.80;99.90
19031;DHT22;9648;51.130;13.978;2022-10-28T14:21:57;16.80;99.90
19031;DHT22;9648;51.130;13.978;2022-10-28T14:24:33;16.70;99.90
19031;DHT22;9648;51.130;13.978;2022-10-28T14:27:27;16.60;99.90
19031;DHT22;9648;51.130;13.978;2022-10-28T14:30:14;16.50;99.90
19031;DHT22;9648;51.130;13.978;2022-10-28T14:32:49;16.50;99.90
19031;DHT22;9648;51.130;13.978;2022-10-28T14:35:28;16.50;99.90
19031;DHT22;9648;51.130;13.978;2022-10-28T14:38:44;16.40;99.90
19031;DHT22;9648;51.130;13.978;2022-10-28T14:44:06;16.40;99.90
19031;DHT22;9648;51.130;13.978;2022-10-28T14:46:55;16.40;99.90
19031;DHT22;9648;51.130;13.978;2022-10-28T14:49:29;16.20;99.90
19031;DHT22;9648;51.130;13.978;2022-10-28T14:52:03;16.10;99.90
19031;DHT22;9648;51.130;13.978;2022-10-28T14:54:35;16.00;99.90
19031;DHT22;9648;51.130;13.978;2022-10-28T14:57:03;15.90;99.90
19031;DHT22;9648;51.130;13.978;2022-10-28T14:59:35;15.80;99.90
19031;DHT22;9648;51.130;13.978;2022-10-28T15:02:09;15.60;99.90
19031;DHT22;9648;51.130;13.978;2022-10-28T15:04:40;15.60;99.90
19031;DHT22;9648;51.130;13.978;2022-10-28T15:07:12;15.50;99.90
19031;DHT22;9648;51.130;13.978;2022-10-28T15:09:40;15.40;99.90
19031;DHT22;9648;51.130;13.978;2022-10-28T15:12:11;15.30;99.90
19031;DHT22;9648;51.130;13.978;2022-10-28T15:14:40;15.20;99.90
19031;DHT22;9648;51.130;13.978;2022-10-28T15:17:16;15.10;99.90
19031;DHT22;9648;51.130;13.978;2022-10-28T15:19:46;15.00;99.90
19031;DHT22;9648;51.130;13.978;2022-10-28T15:22:15;14.90;99.90
19031;DHT22;9648;51.130;13.978;2022-10-28T15:24:55;14.90;99.90
19031;DHT22;9648;51.130;13.978;2022-10-28T15:27:24;14.80;99.90
19031;DHT22;9648;51.130;13.978;2022-10-28T15:29:51;14.70;99.90
19031;DHT22;9648;51.130;13.978;2022-10-28T15:32:28;14.60;99.90
19031;DHT22;9648;51.130;13.978;2022-10-28T15:34:57;14.60;99.90
19031;DHT22;9648;51.130;13.978;2022-10-28T15:37:26;14.70;99.90
19031;DHT22;9648;51.130;13.978;2022-10-28T15:40:10;14.60;99.90
19031;DHT22;9648;51.130;13.978;2022-10-28T15:42:44;14.60;99.90
19031;DHT22;9648;51.130;13.978;2022-10-28T15:45:17;14.60;99.90
19031;DHT22;9648;51.130;13.978;2022-10-28T15:47:45;14.50;99.90
19031;DHT22;9648;51.130;13.978;2022-10-28T15:50:24;14.50;99.90
19031;DHT22;9648;51.130;13.978;2022-10-28T15:52:53;14.50;99.90
19031;DHT22;9648;51.130;13.978;2022-10-28T15:55:41;14.40;99.90
19031;DHT22;9648;51.130;13.978;2022-10-28T15:58:31;14.40;99.90
19031;DHT22;9648;51.130;13.978;2022-10-28T16:00:58;14.40;99.90
19031;DHT22;9648;51.130;13.978;2022-10-28T16:03:27;14.40;99.90
19031;DHT22;9648;51.130;13.978;2022-10-28T16:05:58;14.40;99.90
19031;DHT22;9648;51.130;13.978;2022-10-28T16:08:27;14.40;99.90
19031;DHT22;9648;51.130;13.978;2022-10-28T16:10:57;14.40;99.90
19031;DHT22;9648;51.130;13.978;2022-10-28T16:13:32;14.40;99.90
19031;DHT22;9648;51.130;13.978;2022-10-28T16:16:03;14.40;99.90
19031;DHT22;9648;51.130;13.978;2022-10-28T16:18:34;14.40;99.90
19031;DHT22;9648;51.130;13.978;2022-10-28T16:21:06;14.40;99.90